Time;durP1;ratioP1;P1;durP2;ratioP2;P2;SDS_P1;SDS_P2;PMS_P1;PMS_P2;Temp;Humidity;BMP_temperature;BMP_pressure;BME280_temperature;BME280_humidity;BME280_pressure;Samples;Min_cycle;Max_cycle;Signal;HPM_P1;HPM_P2
2022/05/09 00:02:15;;;;;;;9.80;8.45;;;;;;;-139.48;100.00;61774.03;4994060;28;20565;-71
2022/05/09 00:04:59;;;;;;;9.82;8.30;;;;;;;-139.48;100.00;61774.03;4980135;28;20053;-71
2022/05/09 00:07:44;;;;;;;11.93;8.73;;;;;;;-139.48;100.00;61774.03;4993948;28;20450;-71
2022/05/09 00:10:28;;;;;;;12.73;9.02;;;;;;;-139.48;100.00;61774.03;4993998;28;20053;-71
2022/05/09 00:13:12;;;;;;;13.07;8.88;;;;;;;-139.48;100.00;61774.03;4979872;28;20057;-71
2022/05/09 00:15:56;;;;;;;12.80;9.45;;;;;;;-139.48;100.00;61774.03;4993625;28;20406;-70
2022/05/09 00:18:40;;;;;;;10.73;8.57;;;;;;;-139.48;100.00;61774.03;4993837;28;20053;-71
2022/05/09 00:21:24;;;;;;;13.30;9.43;;;;;;;-139.48;100.00;61774.03;4994291;28;20107;-71
2022/05/09 00:24:12;;;;;;;11.88;9.10;;;;;;;-139.48;100.00;61774.03;4993458;28;20529;-71
2022/05/09 00:26:57;;;;;;;12.65;9.18;;;;;;;-139.48;100.00;61774.03;4993683;28;20125;-71
2022/05/09 00:29:41;;;;;;;12.63;9.30;;;;;;;-139.48;100.00;61774.03;4994635;28;20104;-71
2022/05/09 00:32:25;;;;;;;14.43;9.40;;;;;;;-139.48;100.00;61774.03;4993454;28;20080;-71
2022/05/09 00:35:09;;;;;;;;;;;;;;;-139.48;100.00;61774.03;4994030;28;20521;-71
2022/05/09 00:37:53;;;;;;;11.85;10.15;;;;;;;-139.48;100.00;61774.03;4993309;28;19920;-71
2022/05/09 00:40:38;;;;;;;13.80;10.10;;;;;;;-139.48;100.00;61774.03;4993622;28;20044;-71
2022/05/09 00:43:34;;;;;;;13.27;10.20;;;;;;;-139.48;100.00;61774.03;4993706;28;20122;-71
2022/05/09 00:46:18;;;;;;;13.77;10.00;;;;;;;-139.48;100.00;61774.03;4993313;28;20432;-70
2022/05/09 00:49:26;;;;;;;12.98;9.65;;;;;;;-139.48;100.00;61774.03;4994105;28;20474;-71
2022/05/09 00:52:20;;;;;;;10.75;9.40;;;;;;;-139.48;100.00;61774.03;4993778;28;20108;-71
2022/05/09 00:55:09;;;;;;;12.75;9.77;;;;;;;-139.48;100.00;61774.03;4993306;28;20088;-71
2022/05/09 00:58:07;;;;;;;11.82;9.73;;;;;;;-139.48;100.00;61774.03;4993268;28;20165;-71
2022/05/09 01:00:52;;;;;;;12.30;9.35;;;;;;;-139.48;100.00;61774.03;4979267;28;20077;-71
2022/05/09 01:03:48;;;;;;;13.65;9.27;;;;;;;-139.48;100.00;61774.03;4994035;28;20132;-70
2022/05/09 01:06:32;;;;;;;13.70;10.57;;;;;;;-139.48;100.00;61774.03;4994077;28;20161;-71
2022/05/09 01:09:16;;;;;;;16.58;10.60;;;;;;;-139.48;100.00;61774.03;4979264;28;20049;-71
2022/05/09 01:11:59;;;;;;;15.48;11.52;;;;;;;-139.48;100.00;61774.03;4993755;28;20537;-71
2022/05/09 01:14:44;;;;;;;13.77;9.93;;;;;;;-139.48;100.00;61774.03;4993124;28;20126;-71
2022/05/09 01:17:28;;;;;;;19.35;10.57;;;;;;;-139.48;100.00;61774.03;4992772;28;20096;-71
2022/05/09 01:20:12;;;;;;;16.35;11.25;;;;;;;-139.48;100.00;61774.03;4993081;28;20470;-71
2022/05/09 01:23:00;;;;;;;19.33;11.48;;;;;;;-139.48;100.00;61774.03;5034395;22;20422;-73
2022/05/09 01:25:44;;;;;;;13.95;10.85;;;;;;;-139.48;100.00;61774.03;5013554;28;20052;-72
2022/05/09 01:28:28;;;;;;;15.85;11.57;;;;;;;-139.48;100.00;61774.03;5012515;28;20057;-73
2022/05/09 01:31:12;;;;;;;15.13;11.20;;;;;;;-139.48;100.00;61774.03;4998648;28;20508;-72
2022/05/09 01:33:57;;;;;;;16.23;12.10;;;;;;;-139.48;100.00;61774.03;4993608;28;20053;-73
2022/05/09 01:36:42;;;;;;;16.80;10.57;;;;;;;-139.48;100.00;61774.03;4993097;28;20129;-73
2022/05/09 01:39:26;;;;;;;13.82;11.00;;;;;;;-139.48;100.00;61774.03;4992878;28;20133;-73
2022/05/09 01:42:10;;;;;;;20.83;11.15;;;;;;;-139.48;100.00;61774.03;4992728;28;20050;-73
2022/05/09 01:44:54;;;;;;;13.70;11.43;;;;;;;-139.48;100.00;61774.03;4992600;28;20180;-73
2022/05/09 01:50:41;;;;;;;14.05;11.13;;;;;;;-139.48;100.00;61774.03;4992940;28;20049;-73
2022/05/09 01:53:25;;;;;;;19.08;11.88;;;;;;;-139.48;100.00;61774.03;4993436;28;20561;-73
2022/05/09 01:56:12;;;;;;;15.45;11.02;;;;;;;-139.48;100.00;61774.03;4992484;28;20514;-73
2022/05/09 01:58:56;;;;;;;15.98;11.13;;;;;;;-139.48;100.00;61774.03;4993900;28;20514;-73
2022/05/09 02:01:45;;;;;;;15.95;11.55;;;;;;;-139.48;100.00;61774.03;4992599;28;20107;-73
2022/05/09 02:04:29;;;;;;;14.65;10.80;;;;;;;-139.48;100.00;61774.03;4978942;28;20053;-73
2022/05/09 02:07:16;;;;;;;13.70;11.05;;;;;;;-139.48;100.00;61774.03;4992661;28;20462;-73
2022/05/09 02:10:00;;;;;;;23.13;10.98;;;;;;;-139.48;100.00;61774.03;4978717;28;20411;-73
2022/05/09 02:12:44;;;;;;;13.43;10.82;;;;;;;-139.48;100.00;61774.03;4978918;28;20414;-73
2022/05/09 02:15:31;;;;;;;18.15;11.85;;;;;;;-139.48;100.00;61774.03;4981518;28;20049;-73
2022/05/09 02:18:15;;;;;;;15.30;11.40;;;;;;;-139.48;100.00;61774.03;4982446;28;20462;-73
2022/05/09 02:20:59;;;;;;;15.93;11.52;;;;;;;-139.48;100.00;61774.03;4997287;28;20052;-72
2022/05/09 02:23:43;;;;;;;14.80;11.85;;;;;;;-139.48;100.00;61774.03;4996605;28;20056;-73
2022/05/09 02:26:27;;;;;;;15.05;11.85;;;;;;;-139.48;100.00;61774.03;4996767;28;20085;-73
2022/05/09 02:29:11;;;;;;;17.00;11.65;;;;;;;-139.48;100.00;61774.03;4996669;28;20465;-73
2022/05/09 02:31:57;;;;;;;15.77;11.75;;;;;;;-139.48;100.00;61774.03;4995820;28;20109;-73
2022/05/09 02:34:44;;;;;;;16.33;13.05;;;;;;;-139.48;100.00;61774.03;4982201;28;20051;-73
2022/05/09 02:37:28;;;;;;;18.98;12.73;;;;;;;-139.48;100.00;61774.03;4981940;28;20057;-72
2022/05/09 02:40:12;;;;;;;18.98;12.48;;;;;;;-139.48;100.00;61774.03;4996445;28;20096;-73
2022/05/09 02:42:57;;;;;;;20.77;12.75;;;;;;;-139.48;100.00;61774.03;4995426;28;20484;-72
2022/05/09 02:45:41;;;;;;;17.15;12.05;;;;;;;-139.48;100.00;61774.03;4995636;28;20053;-73
2022/05/09 02:48:25;;;;;;;20.10;12.63;;;;;;;-139.48;100.00;61774.03;4995813;28;20068;-72
2022/05/09 02:51:09;;;;;;;16.52;12.45;;;;;;;-139.48;100.00;61774.03;4996504;28;20077;-73
2022/05/09 02:53:57;;;;;;;17.33;12.85;;;;;;;-139.48;100.00;61774.03;4995665;28;20178;-72
2022/05/09 02:56:41;;;;;;;19.58;11.18;;;;;;;-139.48;100.00;61774.03;4981332;28;20077;-72
2022/05/09 02:59:25;;;;;;;15.73;11.77;;;;;;;-139.48;100.00;61774.03;4995412;28;20053;-73
2022/05/09 03:02:09;;;;;;;20.60;11.77;;;;;;;-139.48;100.00;61774.03;4996121;28;20148;-72
2022/05/09 03:04:53;;;;;;;17.27;12.32;;;;;;;-139.48;100.00;61774.03;4995518;28;20044;-73
2022/05/09 03:07:37;;;;;;;16.52;11.70;;;;;;;-139.48;100.00;61774.03;4981175;28;20418;-73
2022/05/09 03:10:23;;;;;;;15.60;12.20;;;;;;;-139.48;100.00;61774.03;4981152;28;20072;-72
2022/05/09 03:13:10;;;;;;;18.00;11.70;;;;;;;-139.48;100.00;61774.03;4995069;28;20113;-72
2022/05/09 03:15:54;;;;;;;14.63;10.13;;;;;;;-139.48;100.00;61774.03;4995044;28;20521;-73
2022/05/09 03:18:38;;;;;;;16.00;10.80;;;;;;;-139.48;100.00;61774.03;4994644;28;20116;-73
2022/05/09 03:21:22;;;;;;;16.52;11.15;;;;;;;-139.48;100.00;61774.03;4994679;28;20096;-73
2022/05/09 03:24:07;;;;;;;14.07;10.57;;;;;;;-139.48;100.00;61774.03;4995876;28;20053;-73
2022/05/09 03:26:51;;;;;;;19.25;11.15;;;;;;;-139.48;100.00;61774.03;4995515;28;20096;-72
2022/05/09 03:29:35;;;;;;;17.38;10.65;;;;;;;-139.48;100.00;61774.03;4981004;28;20465;-73
2022/05/09 03:32:19;;;;;;;14.25;10.93;;;;;;;-139.48;100.00;61774.03;4994673;28;20080;-73
2022/05/09 03:35:03;;;;;;;14.05;10.20;;;;;;;-139.48;100.00;61774.03;4994428;28;20081;-73
2022/05/09 03:37:48;;;;;;;16.50;11.38;;;;;;;-139.48;100.00;61774.03;4995324;28;20126;-73
2022/05/09 03:40:34;;;;;;;14.98;10.90;;;;;;;-139.48;100.00;61774.03;4994568;28;20049;-73
2022/05/09 03:43:18;;;;;;;18.33;11.30;;;;;;;-139.48;100.00;61774.03;4995147;28;20045;-73
2022/05/09 03:46:02;;;;;;;17.45;10.50;;;;;;;-139.48;100.00;61774.03;4980657;28;20116;-72
2022/05/09 03:48:46;;;;;;;13.70;11.00;;;;;;;-139.48;100.00;61774.03;4994425;28;20129;-72
2022/05/09 03:51:30;;;;;;;16.23;11.77;;;;;;;-139.48;100.00;61774.03;4995275;28;20053;-73
2022/05/09 03:54:15;;;;;;;14.70;11.05;;;;;;;-139.48;100.00;61774.03;4995019;28;20048;-72
2022/05/09 03:56:59;;;;;;;17.00;9.77;;;;;;;-139.48;100.00;61774.03;4994224;28;20083;-72
2022/05/09 03:59:43;;;;;;;14.20;11.00;;;;;;;-139.48;100.00;61774.03;4980720;28;20049;-73
2022/05/09 04:02:27;;;;;;;14.45;11.48;;;;;;;-139.48;100.00;61774.03;4995048;28;20081;-71
2022/05/09 04:05:17;;;;;;;12.32;10.10;;;;;;;-139.48;100.00;61774.03;4994087;28;20082;-73
2022/05/09 04:08:03;;;;;;;17.50;11.02;;;;;;;-139.48;100.00;61774.03;4993868;28;20065;-72
2022/05/09 04:10:49;;;;;;;11.27;9.93;;;;;;;-139.48;100.00;61774.03;4980411;28;20065;-73
2022/05/09 04:13:33;;;;;;;14.45;10.65;;;;;;;-139.48;100.00;61774.03;4993631;28;20073;-72
2022/05/09 04:19:20;;;;;;;16.92;10.23;;;;;;;-139.48;100.00;61774.03;4993978;28;20097;-72
2022/05/09 04:22:04;;;;;;;16.23;10.57;;;;;;;-139.48;100.00;61774.03;4993620;28;20577;-72
2022/05/09 04:24:48;;;;;;;19.70;10.18;;;;;;;-139.48;100.00;61774.03;4994530;28;20064;-73
2022/05/09 04:27:33;;;;;;;14.90;11.27;;;;;;;-139.48;100.00;61774.03;4993726;28;20049;-73
2022/05/09 04:30:17;;;;;;;18.65;11.20;;;;;;;-139.48;100.00;61774.03;4994393;28;20057;-72
2022/05/09 04:33:02;;;;;;;18.05;11.10;;;;;;;-139.48;100.00;61774.03;4993827;28;20049;-72
2022/05/09 04:35:47;;;;;;;14.65;11.02;;;;;;;-139.48;100.00;61774.03;4993602;28;20414;-73
2022/05/09 04:38:31;;;;;;;14.95;10.40;;;;;;;-139.48;100.00;61774.03;4994115;28;20049;-72
2022/05/09 04:41:16;;;;;;;13.57;9.93;;;;;;;-139.48;100.00;61774.03;4993543;28;20113;-73
2022/05/09 04:44:03;;;;;;;17.50;11.15;;;;;;;-139.48;100.00;61774.03;4994699;28;20048;-73
2022/05/09 04:46:46;;;;;;;15.95;10.23;;;;;;;-139.48;100.00;61774.03;4993374;28;20129;-73
2022/05/09 04:49:30;;;;;;;15.85;11.02;;;;;;;-139.48;100.00;61774.03;4979390;28;20080;-73
2022/05/09 04:52:15;;;;;;;17.33;10.82;;;;;;;-139.48;100.00;61774.03;4993340;28;20057;-73
2022/05/09 04:54:59;;;;;;;18.33;11.25;;;;;;;-139.48;100.00;61774.03;4994418;28;20061;-72
2022/05/09 04:57:44;;;;;;;14.90;10.30;;;;;;;-139.48;100.00;61774.03;4993330;28;20068;-73
2022/05/09 05:00:28;;;;;;;13.73;11.63;;;;;;;-139.48;100.00;61774.03;4993264;28;20053;-73
2022/05/09 05:03:11;;;;;;;17.52;10.88;;;;;;;-139.48;100.00;61774.03;4979098;28;20108;-73
2022/05/09 05:05:55;;;;;;;15.00;10.88;;;;;;;-139.48;100.00;61774.03;4992955;28;20049;-73
2022/05/09 05:08:39;;;;;;;14.10;10.90;;;;;;;-139.48;100.00;61774.03;4992898;28;20045;-73
2022/05/09 05:11:23;;;;;;;15.27;11.07;;;;;;;-139.48;100.00;61774.03;4993138;28;20419;-73
2022/05/09 05:14:07;;;;;;;16.42;11.05;;;;;;;-139.48;100.00;61774.03;4979090;28;20053;-73
2022/05/09 05:17:00;;;;;;;17.48;11.27;;;;;;;-139.48;100.00;61774.03;4979263;28;20053;-73
2022/05/09 05:19:44;;;;;;;12.40;10.00;;;;;;;-139.48;100.00;61774.03;4993038;28;20100;-73
2022/05/09 05:22:28;;;;;;;15.68;10.68;;;;;;;-139.48;100.00;61774.03;4993554;28;20513;-72
2022/05/09 05:25:41;;;;;;;18.35;11.95;;;;;;;-139.48;100.00;61774.03;4978983;28;20136;-72
2022/05/09 05:28:26;;;;;;;13.38;9.93;;;;;;;-139.48;100.00;61774.03;4994286;28;20057;-72
2022/05/09 05:31:15;;;;;;;14.98;10.45;;;;;;;-139.48;100.00;61774.03;4992656;28;20184;-73
2022/05/09 05:33:59;;;;;;;17.30;10.65;;;;;;;-139.48;100.00;61774.03;4992911;28;20109;-72
2022/05/09 05:36:43;;;;;;;11.98;10.18;;;;;;;-139.48;100.00;61774.03;4993577;28;20419;-72
2022/05/09 05:39:27;;;;;;;17.48;10.80;;;;;;;-139.48;100.00;61774.03;4992925;28;20466;-72
2022/05/09 05:42:12;;;;;;;18.30;11.27;;;;;;;-139.48;100.00;61774.03;4992557;28;20414;-72
2022/05/09 05:44:55;;;;;;;14.07;10.85;;;;;;;-139.48;100.00;61774.03;4992806;28;20049;-73
2022/05/09 05:47:39;;;;;;;16.67;11.00;;;;;;;-139.48;100.00;61774.03;4993524;28;20049;-72
2022/05/09 05:50:23;;;;;;;;;;;;;;;-139.48;100.00;61774.03;4996250;28;20060;-72
2022/05/09 05:53:07;;;;;;;15.00;11.18;;;;;;;-139.48;100.00;61774.03;4996275;28;19960;-72
2022/05/09 05:55:51;;;;;;;13.82;10.60;;;;;;;-139.48;100.00;61774.03;4997484;28;20165;-73
2022/05/09 05:58:35;;;;;;;17.92;10.57;;;;;;;-139.48;100.00;61774.03;4996472;28;20053;-72
2022/05/09 06:01:19;;;;;;;15.23;10.93;;;;;;;-139.48;100.00;61774.03;4982859;28;20108;-73
2022/05/09 06:04:03;;;;;;;15.40;11.70;;;;;;;-139.48;100.00;61774.03;4996444;28;20080;-72
2022/05/09 06:06:48;;;;;;;17.92;11.38;;;;;;;-139.48;100.00;61774.03;4996139;28;20064;-73
2022/05/09 06:09:32;;;;;;;18.30;11.98;;;;;;;-139.48;100.00;61774.03;4996322;28;20049;-73
2022/05/09 06:12:16;;;;;;;;;;;;;;;-139.48;100.00;61774.03;4996891;28;20609;-72
2022/05/09 06:18:07;;;;;;;15.68;11.38;;;;;;;-139.48;100.00;61774.03;4996251;28;20093;-72
2022/05/09 06:20:51;;;;;;;19.48;11.50;;;;;;;-139.48;100.00;61774.03;4996763;28;20466;-72
2022/05/09 06:23:35;;;;;;;16.33;11.38;;;;;;;-139.48;100.00;61774.03;4995632;28;20101;-73
2022/05/09 06:26:22;;;;;;;20.13;11.82;;;;;;;-139.48;100.00;61774.03;4997074;28;20053;-73
2022/05/09 06:29:06;;;;;;;15.25;11.05;;;;;;;-139.48;100.00;61774.03;4996072;28;20052;-73
2022/05/09 06:31:50;;;;;;;16.48;11.05;;;;;;;-139.48;100.00;61774.03;4995888;28;20049;-72
2022/05/09 06:34:34;;;;;;;15.25;11.73;;;;;;;-139.48;100.00;61774.03;4982139;28;20049;-73
2022/05/09 06:37:19;;;;;;;16.67;11.25;;;;;;;-139.48;100.00;61774.03;4982055;28;20049;-73
2022/05/09 06:40:05;;;;;;;17.25;11.50;;;;;;;-139.48;100.00;61774.03;4996002;28;20133;-72
2022/05/09 06:42:51;;;;;;;20.90;11.35;;;;;;;-139.48;100.00;61774.03;4995278;28;20053;-72
2022/05/09 06:45:36;;;;;;;14.77;11.32;;;;;;;-139.48;100.00;61774.03;4997272;28;20100;-72
2022/05/09 06:48:20;;;;;;;17.00;11.05;;;;;;;-139.48;100.00;61774.03;4995251;28;20105;-73
2022/05/09 06:51:04;;;;;;;18.33;11.02;;;;;;;-139.48;100.00;61774.03;4995201;28;20514;-72
2022/05/09 06:53:50;;;;;;;15.57;10.82;;;;;;;-139.48;100.00;61774.03;4995167;28;20050;-73
2022/05/09 06:56:34;;;;;;;16.17;10.77;;;;;;;-139.48;100.00;61774.03;4995626;28;20123;-73
2022/05/09 06:59:20;;;;;;;16.27;10.75;;;;;;;-139.48;100.00;61774.03;4996107;28;20426;-73
2022/05/09 07:02:04;;;;;;;15.75;11.27;;;;;;;-139.48;100.00;61774.03;4995037;28;20112;-73
2022/05/09 07:04:48;;;;;;;15.60;10.70;;;;;;;-139.48;100.00;61774.03;4995262;28;20081;-72
2022/05/09 07:07:32;;;;;;;13.10;10.57;;;;;;;-139.48;100.00;61774.03;4995253;28;20085;-73
2022/05/09 07:10:17;;;;;;;16.40;10.43;;;;;;;-139.48;100.00;61774.03;4995879;28;20052;-73
2022/05/09 07:13:04;;;;;;;14.90;10.45;;;;;;;-139.48;100.00;61774.03;4994728;28;20053;-72
2022/05/09 07:15:48;;;;;;;13.32;10.70;;;;;;;-139.48;100.00;61774.03;4995083;28;20108;-72
2022/05/09 07:18:32;;;;;;;18.20;11.45;;;;;;;-139.48;100.00;61774.03;4994890;28;20049;-72
2022/05/09 07:21:16;;;;;;;11.02;9.85;;;;;;;-139.48;100.00;61774.03;4981519;28;20525;-72
2022/05/09 07:24:00;;;;;;;18.05;10.65;;;;;;;-139.48;100.00;61774.03;5035733;23;20533;-71
2022/05/09 07:26:44;;;;;;;14.48;9.88;;;;;;;-139.48;100.00;61774.03;5035175;28;20080;-71
2022/05/09 07:29:28;;;;;;;14.20;10.48;;;;;;;-139.48;100.00;61774.03;5035133;28;20056;-72
2022/05/09 07:32:12;;;;;;;11.23;9.65;;;;;;;-139.48;100.00;61774.03;5036201;28;20048;-71
2022/05/09 07:34:56;;;;;;;15.30;10.93;;;;;;;-139.48;100.00;61774.03;5054976;28;20131;-72
2022/05/09 07:37:40;;;;;;;16.48;10.95;;;;;;;-139.48;100.00;61774.03;5054661;28;20052;-72
2022/05/09 07:40:24;;;;;;;13.50;10.00;;;;;;;-139.48;100.00;61774.03;5039979;28;20102;-71
2022/05/09 07:43:12;;;;;;;16.67;10.52;;;;;;;-139.48;100.00;61774.03;5053716;28;20048;-71
2022/05/09 07:45:56;;;;;;;12.45;9.38;;;;;;;-139.48;100.00;61774.03;5053691;28;20047;-71
2022/05/09 07:48:41;;;;;;;14.90;9.95;;;;;;;-139.48;100.00;61774.03;5053439;28;20043;-72
2022/05/09 07:51:24;;;;;;;14.32;10.20;;;;;;;-139.48;100.00;61774.03;5054644;28;20056;-72
2022/05/09 07:54:08;;;;;;;13.65;10.25;;;;;;;-139.48;100.00;61774.03;5054769;28;20515;-72
2022/05/09 07:56:53;;;;;;;13.88;10.73;;;;;;;-139.48;100.00;61774.03;5054402;28;20056;-72
2022/05/09 07:59:37;;;;;;;14.20;10.35;;;;;;;-139.48;100.00;61774.03;5039480;28;20103;-71
2022/05/09 08:02:21;;;;;;;14.23;9.73;;;;;;;-139.48;100.00;61774.03;5054231;28;20083;-71
2022/05/09 08:05:06;;;;;;;13.90;10.25;;;;;;;-139.48;100.00;61774.03;5053049;28;20196;-71
2022/05/09 08:07:49;;;;;;;14.68;10.15;;;;;;;-139.48;100.00;61774.03;5054571;28;20451;-71
2022/05/09 08:10:35;;;;;;;14.52;10.20;;;;;;;-139.48;100.00;61774.03;5053981;28;20097;-71
2022/05/09 08:13:19;;;;;;;12.20;9.20;;;;;;;-139.48;100.00;61774.03;5052498;28;20067;-72
2022/05/09 08:16:04;;;;;;;12.75;9.60;;;;;;;-139.48;100.00;61774.03;5053222;28;20052;-71
2022/05/09 08:18:48;;;;;;;15.77;9.75;;;;;;;-139.48;100.00;61774.03;5053055;28;20144;-71
2022/05/09 08:21:33;;;;;;;11.30;9.18;;;;;;;-139.48;100.00;61774.03;5038997;28;20128;-71
2022/05/09 08:24:18;;;;;;;12.85;9.15;;;;;;;-139.48;100.00;61774.03;5053893;28;20516;-71
2022/05/09 08:27:02;;;;;;;14.68;8.23;;;;;;;-139.48;100.00;61774.03;5053037;28;20044;-71
2022/05/09 08:29:46;;;;;;;11.50;9.48;;;;;;;-139.48;100.00;61774.03;5052706;28;20044;-71
2022/05/09 08:32:31;;;;;;;10.27;9.18;;;;;;;-139.48;100.00;61774.03;5053789;28;20148;-72
2022/05/09 08:35:15;;;;;;;13.95;9.20;;;;;;;-139.48;100.00;61774.03;5053115;28;20132;-72
2022/05/09 08:37:59;;;;;;;13.90;9.25;;;;;;;-139.48;100.00;61774.03;5052304;28;20459;-71
2022/05/09 08:40:45;;;;;;;;;;;;;;;-139.48;100.00;61774.03;5054181;28;20127;-71
2022/05/09 08:43:55;;;;;;;18.15;9.82;;;;;;;-139.48;100.00;61774.03;5053224;28;19967;-72
2022/05/09 08:47:00;;;;;;;14.15;9.88;;;;;;;-139.48;100.00;61774.03;5053689;28;20151;-71
2022/05/09 08:49:56;;;;;;;11.27;7.88;;;;;;;-139.48;100.00;61774.03;5053300;28;20086;-72
2022/05/09 08:53:02;;;;;;;13.88;7.80;;;;;;;-139.48;100.00;61774.03;5053439;28;20118;-72
2022/05/09 08:55:48;;;;;;;11.75;7.68;;;;;;;-139.48;100.00;61774.03;5036665;28;20048;-72
2022/05/09 08:58:43;;;;;;;8.80;7.85;;;;;;;-139.48;100.00;61774.03;5052082;28;20047;-71
2022/05/09 09:01:28;;;;;;;9.10;7.78;;;;;;;-139.48;100.00;61774.03;5052362;28;20060;-72
2022/05/09 09:04:25;;;;;;;11.02;7.30;;;;;;;-139.48;100.00;61774.03;5052327;28;20094;-72
2022/05/09 09:07:09;;;;;;;12.18;7.32;;;;;;;-139.48;100.00;61774.03;5052372;28;20048;-72
2022/05/09 09:10:01;;;;;;;12.68;8.15;;;;;;;-139.48;100.00;61774.03;5053309;28;20156;-71
2022/05/09 09:12:48;;;;;;;10.70;7.65;;;;;;;-139.48;100.00;61774.03;5053269;28;20098;-72
2022/05/09 09:15:51;;;;;;;10.10;7.90;;;;;;;-139.48;100.00;61774.03;5052038;28;20079;-71
2022/05/09 09:19:04;;;;;;;12.65;6.97;;;;;;;-139.48;100.00;61774.03;5052258;28;20559;-72
2022/05/09 09:22:09;;;;;;;10.38;7.03;;;;;;;-139.48;100.00;61774.03;5052296;28;20412;-71
2022/05/09 09:25:22;;;;;;;10.48;7.55;;;;;;;-139.48;100.00;61774.03;5055901;28;20094;-72
2022/05/09 09:28:12;;;;;;;8.77;6.95;;;;;;;-139.48;100.00;61774.03;5057342;28;20052;-72
2022/05/09 09:30:57;;;;;;;10.20;7.97;;;;;;;-139.48;100.00;61774.03;5042277;28;20047;-72
2022/05/09 09:33:57;;;;;;;9.07;7.53;;;;;;;-139.48;100.00;61774.03;5056141;28;20048;-72
2022/05/09 09:36:47;;;;;;;10.23;7.53;;;;;;;-139.48;100.00;61774.03;5028978;28;20087;-71
2022/05/09 09:39:31;;;;;;;8.88;7.22;;;;;;;-139.48;100.00;61774.03;5041903;28;20519;-71
2022/05/09 09:42:15;;;;;;;9.27;7.28;;;;;;;-139.48;100.00;61774.03;5056569;28;20540;-71
2022/05/09 09:45:03;;;;;;;8.45;7.28;;;;;;;-139.48;100.00;61774.03;5056939;28;20144;-72
2022/05/09 09:47:47;;;;;;;7.90;7.07;;;;;;;-139.48;100.00;61774.03;5055995;28;20180;-71
2022/05/09 09:50:31;;;;;;;9.63;7.70;;;;;;;-139.48;100.00;61774.03;5055875;28;20074;-71
2022/05/09 09:53:38;;;;;;;9.30;7.22;;;;;;;-139.48;100.00;61774.03;5055541;28;20048;-71
2022/05/09 09:56:22;;;;;;;9.20;6.20;;;;;;;-139.48;100.00;61774.03;5057082;28;20103;-72
2022/05/09 09:59:09;;;;;;;9.25;6.53;;;;;;;-139.48;100.00;61774.03;5056814;28;20048;-71
2022/05/09 10:02:06;;;;;;;14.10;6.40;;;;;;;-139.48;100.00;61774.03;5056417;28;20052;-71
2022/05/09 10:04:50;;;;;;;8.40;7.00;;;;;;;-139.48;100.00;61774.03;5055363;28;20051;-71
2022/05/09 10:07:35;;;;;;;9.05;6.13;;;;;;;-139.48;100.00;61774.03;5041593;28;20048;-71
2022/05/09 10:10:23;;;;;;;8.80;6.25;;;;;;;-139.48;100.00;61774.03;5055555;28;20183;-72
2022/05/09 10:13:17;;;;;;;9.20;6.13;;;;;;;-139.48;100.00;61774.03;5055432;28;20052;-71
2022/05/09 10:16:05;;;;;;;9.68;5.80;;;;;;;-139.48;100.00;61774.03;5055480;28;20484;-71
2022/05/09 10:18:50;;;;;;;6.40;5.50;;;;;;;-139.48;100.00;61774.03;5055064;28;20051;-72
2022/05/09 10:24:47;;;;;;;8.27;6.18;;;;;;;-139.48;100.00;61774.03;5055548;28;20523;-72
2022/05/09 10:27:32;;;;;;;9.07;6.03;;;;;;;-139.48;100.00;61774.03;5055220;28;20056;-71
2022/05/09 10:30:16;;;;;;;15.23;10.88;;;;;;;-139.48;100.00;61774.03;5054944;28;20114;-72
2022/05/09 10:33:19;;;;;;;9.13;6.05;;;;;;;-139.48;100.00;61774.03;5055746;28;20148;-71
2022/05/09 10:36:11;;;;;;;8.83;5.13;;;;;;;-139.48;100.00;61774.03;5055117;28;20098;-72
2022/05/09 10:39:26;;;;;;;6.15;5.55;;;;;;;-139.48;100.00;61774.03;5055013;28;20134;-73
2022/05/09 10:42:10;;;;;;;7.30;5.60;;;;;;;-139.48;100.00;61774.03;5055146;28;20090;-72
2022/05/09 10:45:04;;;;;;;6.13;4.70;;;;;;;-139.48;100.00;61774.03;5054930;28;20421;-72
2022/05/09 10:47:52;;;;;;;9.98;5.95;;;;;;;-139.48;100.00;61774.03;5054865;28;20072;-72
2022/05/09 10:51:03;;;;;;;8.27;5.00;;;;;;;-139.48;100.00;61774.03;5054482;28;20125;-72
2022/05/09 10:54:00;;;;;;;6.88;5.00;;;;;;;-139.48;100.00;61774.03;5055664;28;20126;-72
2022/05/09 10:56:49;;;;;;;9.23;5.85;;;;;;;-139.48;100.00;61774.03;5054665;28;20044;-71
2022/05/09 10:59:34;;;;;;;7.20;5.57;;;;;;;-139.48;100.00;61774.03;5054710;28;20133;-72
2022/05/09 11:02:24;;;;;;;9.40;5.72;;;;;;;-139.48;100.00;61774.03;5054550;28;20072;-72
2022/05/09 11:05:09;;;;;;;8.20;5.00;;;;;;;-139.48;100.00;61774.03;5054504;28;20044;-72
2022/05/09 11:08:05;;;;;;;6.95;5.43;;;;;;;-139.48;100.00;61774.03;5054487;28;20044;-71
2022/05/09 11:11:09;;;;;;;6.80;5.28;;;;;;;-139.48;100.00;61774.03;5040622;28;20047;-71
2022/05/09 11:14:12;;;;;;;7.55;4.97;;;;;;;-139.48;100.00;61774.03;5055000;28;20136;-71
2022/05/09 11:17:41;;;;;;;8.00;5.00;;;;;;;-139.48;100.00;61774.03;5055480;28;20460;-72
2022/05/09 11:20:35;;;;;;;7.47;5.47;;;;;;;-139.48;100.00;61774.03;5044482;28;20052;-71
2022/05/09 11:23:57;;;;;;;5.88;4.88;;;;;;;-139.48;100.00;61774.03;5053828;28;20043;-72
2022/05/09 11:26:55;;;;;;;9.67;5.53;;;;;;;-139.48;100.00;61774.03;5013297;28;20048;-71
2022/05/09 11:29:44;;;;;;;5.72;5.00;;;;;;;-139.48;100.00;61774.03;5013571;28;20053;-71
2022/05/09 11:32:43;;;;;;;7.03;5.45;;;;;;;-139.48;100.00;61774.03;5053621;28;20064;-72
2022/05/09 11:35:34;;;;;;;8.05;5.00;;;;;;;-139.48;100.00;61774.03;5053701;28;20643;-72
2022/05/09 11:38:27;;;;;;;5.35;4.85;;;;;;;-139.48;100.00;61774.03;5054553;28;20515;-72
2022/05/09 11:45:39;;;;;;;5.22;4.78;;;;;;;-139.48;100.00;61774.03;5012687;28;20060;-72
2022/05/09 11:48:32;;;;;;;7.50;5.15;;;;;;;-139.48;100.00;61774.03;5012221;28;20112;-72
2022/05/09 11:51:25;;;;;;;6.82;5.35;;;;;;;-139.48;100.00;61774.03;5054585;28;20052;-72
2022/05/09 11:54:30;;;;;;;8.57;5.43;;;;;;;-139.48;100.00;61774.03;5053264;28;20094;-72
2022/05/09 11:57:28;;;;;;;6.07;5.30;;;;;;;-139.48;100.00;61774.03;5053273;28;20047;-72
2022/05/09 12:00:33;;;;;;;5.30;4.80;;;;;;;-139.48;100.00;61774.03;5053239;28;20043;-72
2022/05/09 12:03:40;;;;;;;7.13;4.60;;;;;;;-139.48;100.00;61774.03;5051714;28;20059;-72
2022/05/09 12:06:30;;;;;;;5.15;4.60;;;;;;;-139.48;100.00;61774.03;5054411;28;20155;-72
2022/05/09 12:09:53;;;;;;;9.48;5.60;;;;;;;-139.48;100.00;61774.03;5053218;28;20098;-71
2022/05/09 12:12:37;;;;;;;8.00;6.17;;;;;;;-139.48;100.00;61774.03;5052932;28;20138;-72
2022/05/09 12:15:20;;;;;;;8.13;5.00;;;;;;;-139.48;100.00;61774.03;5053927;28;20047;-71
2022/05/09 12:18:23;;;;;;;5.40;4.90;;;;;;;-139.48;100.00;61774.03;5053881;28;20087;-71
2022/05/09 12:21:18;;;;;;;7.67;5.60;;;;;;;-139.48;100.00;61774.03;5053120;28;20479;-71
2022/05/09 12:24:14;;;;;;;6.03;4.88;;;;;;;-139.48;100.00;61774.03;5052622;28;20408;-72
2022/05/09 12:27:01;;;;;;;8.35;4.80;;;;;;;-139.48;100.00;61774.03;5053697;28;20175;-72
2022/05/09 12:29:49;;;;;;;5.43;4.85;;;;;;;-139.48;100.00;61774.03;5053722;28;20051;-71
2022/05/09 12:32:34;;;;;;;5.43;4.80;;;;;;;-139.48;100.00;61774.03;5038563;28;20095;-72
2022/05/09 12:35:18;;;;;;;4.95;4.45;;;;;;;-139.48;100.00;61774.03;5053798;28;20186;-72
2022/05/09 12:38:02;;;;;;;6.43;5.05;;;;;;;-139.48;100.00;61774.03;5052814;28;20106;-72
2022/05/09 12:40:46;;;;;;;5.38;4.88;;;;;;;-139.48;100.00;61774.03;5052753;28;20158;-72
2022/05/09 12:43:31;;;;;;;7.25;5.30;;;;;;;-139.48;100.00;61774.03;5052604;28;20051;-71
2022/05/09 12:46:24;;;;;;;7.97;5.18;;;;;;;-139.48;100.00;61774.03;5052734;28;20091;-71
2022/05/09 12:49:08;;;;;;;5.57;4.85;;;;;;;-139.48;100.00;61774.03;5053946;28;20048;-71